Terminal Aerodrome Forecast
Issued by NWS

Home | Current Version | Previous Version | Text Only | Print | Product List | Glossary On
Versions: 1 2 3 4 5 6 7 8 9 10 11 12 13 14 15 16 17 18 19 20 21 22 23 24 25 26
000
FTUS45 KPSR 272325
TAFPHX
TAF
KPHX 272325Z 2800/2906 29010KT P6SM FEW100 SCT170 BKN250
     FM280100 03010G20KT P6SM SCT100 BKN250
     FM280300 09008KT P6SM SCT100 BKN250
     FM280700 13010KT P6SM BKN140 BKN250
     FM282100 25006KT P6SM BKN100 BKN250=

USA.gov is the U.S. government's official web portal to all federal, state and local government web resources and services.